sensor_id;sensor_type;location;lat;lon;timestamp;P1;durP1;ratioP1;P2;durP2;ratioP2
41629;SDS011;27322;49.488;8.480;2022-09-30T00:01:44;8.02;;;4.35;;
41629;SDS011;27322;49.488;8.480;2022-09-30T00:04:12;8.20;;;4.13;;
41629;SDS011;27322;49.488;8.480;2022-09-30T00:06:43;7.53;;;4.32;;
41629;SDS011;27322;49.488;8.480;2022-09-30T00:09:09;7.25;;;4.60;;
41629;SDS011;27322;49.488;8.480;2022-09-30T00:11:38;8.70;;;4.40;;
41629;SDS011;27322;49.488;8.480;2022-09-30T00:14:05;7.82;;;4.30;;
41629;SDS011;27322;49.488;8.480;2022-09-30T00:16:33;8.02;;;4.22;;
41629;SDS011;27322;49.488;8.480;2022-09-30T00:19:00;7.38;;;3.88;;
41629;SDS011;27322;49.488;8.480;2022-09-30T00:21:27;6.50;;;4.15;;
41629;SDS011;27322;49.488;8.480;2022-09-30T00:23:53;7.55;;;4.45;;
41629;SDS011;27322;49.488;8.480;2022-09-30T00:26:19;8.07;;;4.18;;
41629;SDS011;27322;49.488;8.480;2022-09-30T00:28:50;7.53;;;4.20;;
41629;SDS011;27322;49.488;8.480;2022-09-30T00:31:17;7.35;;;3.85;;
41629;SDS011;27322;49.488;8.480;2022-09-30T00:33:44;7.20;;;4.22;;
41629;SDS011;27322;49.488;8.480;2022-09-30T00:36:31;7.85;;;4.13;;
41629;SDS011;27322;49.488;8.480;2022-09-30T00:39:03;6.38;;;4.15;;
41629;SDS011;27322;49.488;8.480;2022-09-30T00:41:30;7.68;;;4.43;;
41629;SDS011;27322;49.488;8.480;2022-09-30T00:43:56;7.00;;;4.10;;
41629;SDS011;27322;49.488;8.480;2022-09-30T00:49:02;9.55;;;4.47;;
41629;SDS011;27322;49.488;8.480;2022-09-30T00:51:37;7.25;;;4.10;;
41629;SDS011;27322;49.488;8.480;2022-09-30T00:54:08;7.72;;;4.07;;
41629;SDS011;27322;49.488;8.480;2022-09-30T00:56:38;7.57;;;4.15;;
41629;SDS011;27322;49.488;8.480;2022-09-30T00:59:09;6.68;;;4.50;;
41629;SDS011;27322;49.488;8.480;2022-09-30T01:01:40;7.20;;;4.45;;
41629;SDS011;27322;49.488;8.480;2022-09-30T01:04:11;7.97;;;4.43;;
41629;SDS011;27322;49.488;8.480;2022-09-30T01:06:39;8.60;;;4.82;;
41629;SDS011;27322;49.488;8.480;2022-09-30T01:09:04;7.40;;;4.03;;
41629;SDS011;27322;49.488;8.480;2022-09-30T01:11:30;8.70;;;4.38;;
41629;SDS011;27322;49.488;8.480;2022-09-30T01:13:57;8.73;;;4.60;;
41629;SDS011;27322;49.488;8.480;2022-09-30T01:30:07;5.95;;;3.80;;
41629;SDS011;27322;49.488;8.480;2022-09-30T01:38:28;8.48;;;4.50;;
41629;SDS011;27322;49.488;8.480;2022-09-30T01:41:47;7.57;;;3.95;;
41629;SDS011;27322;49.488;8.480;2022-09-30T01:51:54;7.03;;;4.20;;
41629;SDS011;27322;49.488;8.480;2022-09-30T01:54:31;6.93;;;3.85;;
41629;SDS011;27322;49.488;8.480;2022-09-30T01:57:09;6.65;;;4.10;;
41629;SDS011;27322;49.488;8.480;2022-09-30T01:59:44;6.15;;;3.78;;
41629;SDS011;27322;49.488;8.480;2022-09-30T02:02:18;7.93;;;4.00;;
41629;SDS011;27322;49.488;8.480;2022-09-30T02:04:51;7.60;;;4.15;;
41629;SDS011;27322;49.488;8.480;2022-09-30T02:07:35;9.05;;;4.22;;
41629;SDS011;27322;49.488;8.480;2022-09-30T02:13:21;6.70;;;3.90;;
41629;SDS011;27322;49.488;8.480;2022-09-30T02:15:50;10.77;;;4.03;;
41629;SDS011;27322;49.488;8.480;2022-09-30T02:18:20;9.05;;;4.07;;
41629;SDS011;27322;49.488;8.480;2022-09-30T02:20:48;8.40;;;4.32;;
41629;SDS011;27322;49.488;8.480;2022-09-30T02:23:25;6.90;;;3.80;;
41629;SDS011;27322;49.488;8.480;2022-09-30T02:25:59;6.70;;;3.78;;
41629;SDS011;27322;49.488;8.480;2022-09-30T02:28:32;8.55;;;4.18;;
41629;SDS011;27322;49.488;8.480;2022-09-30T02:31:01;8.40;;;4.20;;
41629;SDS011;27322;49.488;8.480;2022-09-30T02:35:56;7.38;;;4.18;;
41629;SDS011;27322;49.488;8.480;2022-09-30T02:38:30;7.78;;;3.88;;
41629;SDS011;27322;49.488;8.480;2022-09-30T02:41:03;6.95;;;3.75;;
41629;SDS011;27322;49.488;8.480;2022-09-30T02:43:35;6.43;;;3.95;;
41629;SDS011;27322;49.488;8.480;2022-09-30T02:52:11;6.80;;;3.90;;
41629;SDS011;27322;49.488;8.480;2022-09-30T02:59:55;8.35;;;4.00;;
41629;SDS011;27322;49.488;8.480;2022-09-30T03:02:21;6.75;;;4.38;;
41629;SDS011;27322;49.488;8.480;2022-09-30T03:04:48;7.15;;;4.13;;
41629;SDS011;27322;49.488;8.480;2022-09-30T03:07:15;8.70;;;4.95;;
41629;SDS011;27322;49.488;8.480;2022-09-30T03:09:41;7.85;;;4.00;;
41629;SDS011;27322;49.488;8.480;2022-09-30T03:12:18;7.00;;;4.53;;
41629;SDS011;27322;49.488;8.480;2022-09-30T03:23:31;10.38;;;4.85;;
41629;SDS011;27322;49.488;8.480;2022-09-30T03:29:07;7.80;;;4.85;;
41629;SDS011;27322;49.488;8.480;2022-09-30T03:31:51;8.25;;;4.85;;
41629;SDS011;27322;49.488;8.480;2022-09-30T03:34:33;8.23;;;4.38;;
41629;SDS011;27322;49.488;8.480;2022-09-30T03:39:58;8.45;;;4.65;;
41629;SDS011;27322;49.488;8.480;2022-09-30T03:42:36;7.25;;;4.47;;
41629;SDS011;27322;49.488;8.480;2022-09-30T03:45:15;9.63;;;4.93;;
41629;SDS011;27322;49.488;8.480;2022-09-30T03:47:42;7.10;;;4.15;;
41629;SDS011;27322;49.488;8.480;2022-09-30T03:50:12;8.23;;;4.90;;
41629;SDS011;27322;49.488;8.480;2022-09-30T03:52:41;7.85;;;4.20;;
41629;SDS011;27322;49.488;8.480;2022-09-30T03:55:07;7.90;;;4.40;;
41629;SDS011;27322;49.488;8.480;2022-09-30T03:57:35;7.85;;;4.85;;
41629;SDS011;27322;49.488;8.480;2022-09-30T04:00:01;6.85;;;4.47;;
41629;SDS011;27322;49.488;8.480;2022-09-30T04:02:29;8.40;;;4.22;;
41629;SDS011;27322;49.488;8.480;2022-09-30T04:04:54;8.45;;;4.95;;
41629;SDS011;27322;49.488;8.480;2022-09-30T04:07:20;7.88;;;4.60;;
41629;SDS011;27322;49.488;8.480;2022-09-30T04:09:46;8.43;;;4.57;;
41629;SDS011;27322;49.488;8.480;2022-09-30T04:12:11;10.23;;;5.13;;
41629;SDS011;27322;49.488;8.480;2022-09-30T04:14:37;8.02;;;4.80;;
41629;SDS011;27322;49.488;8.480;2022-09-30T04:17:03;8.57;;;4.57;;
41629;SDS011;27322;49.488;8.480;2022-09-30T04:19:29;8.52;;;4.82;;
41629;SDS011;27322;49.488;8.480;2022-09-30T04:21:55;8.88;;;4.80;;
41629;SDS011;27322;49.488;8.480;2022-09-30T04:24:21;8.00;;;5.10;;
41629;SDS011;27322;49.488;8.480;2022-09-30T04:26:48;8.23;;;4.70;;
41629;SDS011;27322;49.488;8.480;2022-09-30T04:29:14;8.23;;;5.32;;
41629;SDS011;27322;49.488;8.480;2022-09-30T04:31:40;8.80;;;4.78;;
41629;SDS011;27322;49.488;8.480;2022-09-30T04:34:06;11.07;;;5.22;;
41629;SDS011;27322;49.488;8.480;2022-09-30T04:36:32;8.70;;;5.53;;
41629;SDS011;27322;49.488;8.480;2022-09-30T04:38:58;11.00;;;5.53;;
41629;SDS011;27322;49.488;8.480;2022-09-30T04:41:23;9.48;;;5.15;;
41629;SDS011;27322;49.488;8.480;2022-09-30T04:43:49;10.40;;;5.88;;
41629;SDS011;27322;49.488;8.480;2022-09-30T04:46:15;9.68;;;6.05;;
41629;SDS011;27322;49.488;8.480;2022-09-30T04:48:43;10.00;;;5.88;;
41629;SDS011;27322;49.488;8.480;2022-09-30T04:51:10;9.70;;;5.78;;
41629;SDS011;27322;49.488;8.480;2022-09-30T04:53:37;9.32;;;5.65;;
41629;SDS011;27322;49.488;8.480;2022-09-30T04:56:03;11.90;;;5.88;;
41629;SDS011;27322;49.488;8.480;2022-09-30T04:58:29;8.40;;;5.70;;
41629;SDS011;27322;49.488;8.480;2022-09-30T05:01:02;12.43;;;6.10;;
41629;SDS011;27322;49.488;8.480;2022-09-30T05:03:30;9.45;;;5.70;;
41629;SDS011;27322;49.488;8.480;2022-09-30T05:05:56;9.27;;;5.82;;
41629;SDS011;27322;49.488;8.480;2022-09-30T05:08:22;12.10;;;5.55;;
41629;SDS011;27322;49.488;8.480;2022-09-30T05:11:07;11.32;;;5.75;;
41629;SDS011;27322;49.488;8.480;2022-09-30T05:13:35;9.90;;;5.85;;
41629;SDS011;27322;49.488;8.480;2022-09-30T05:16:02;9.63;;;6.00;;
41629;SDS011;27322;49.488;8.480;2022-09-30T05:18:29;10.45;;;5.97;;
41629;SDS011;27322;49.488;8.480;2022-09-30T05:20:56;10.25;;;5.90;;
41629;SDS011;27322;49.488;8.480;2022-09-30T05:23:22;9.20;;;5.40;;
41629;SDS011;27322;49.488;8.480;2022-09-30T05:25:50;9.13;;;5.80;;
41629;SDS011;27322;49.488;8.480;2022-09-30T05:28:16;8.18;;;5.55;;
41629;SDS011;27322;49.488;8.480;2022-09-30T05:30:42;8.95;;;6.20;;
41629;SDS011;27322;49.488;8.480;2022-09-30T05:33:09;9.55;;;5.78;;
41629;SDS011;27322;49.488;8.480;2022-09-30T05:35:38;10.07;;;6.15;;
41629;SDS011;27322;49.488;8.480;2022-09-30T05:38:08;10.20;;;5.93;;
41629;SDS011;27322;49.488;8.480;2022-09-30T05:40:37;9.65;;;6.13;;
41629;SDS011;27322;49.488;8.480;2022-09-30T05:43:03;9.30;;;5.78;;
41629;SDS011;27322;49.488;8.480;2022-09-30T05:45:29;10.15;;;6.30;;
41629;SDS011;27322;49.488;8.480;2022-09-30T05:47:55;10.60;;;6.43;;
41629;SDS011;27322;49.488;8.480;2022-09-30T05:50:21;8.30;;;5.20;;
41629;SDS011;27322;49.488;8.480;2022-09-30T05:52:48;11.73;;;6.82;;
41629;SDS011;27322;49.488;8.480;2022-09-30T05:55:15;8.45;;;5.85;;
41629;SDS011;27322;49.488;8.480;2022-09-30T05:57:41;11.05;;;4.90;;
41629;SDS011;27322;49.488;8.480;2022-09-30T06:00:07;7.78;;;4.90;;
41629;SDS011;27322;49.488;8.480;2022-09-30T06:02:33;10.23;;;4.95;;
41629;SDS011;27322;49.488;8.480;2022-09-30T06:05:02;8.30;;;5.20;;
41629;SDS011;27322;49.488;8.480;2022-09-30T06:07:32;9.35;;;5.25;;
41629;SDS011;27322;49.488;8.480;2022-09-30T06:09:59;9.55;;;4.90;;
41629;SDS011;27322;49.488;8.480;2022-09-30T06:12:25;8.45;;;4.97;;
41629;SDS011;27322;49.488;8.480;2022-09-30T06:14:52;8.35;;;4.32;;
41629;SDS011;27322;49.488;8.480;2022-09-30T06:17:19;7.85;;;4.10;;
41629;SDS011;27322;49.488;8.480;2022-09-30T06:19:45;7.88;;;4.68;;
41629;SDS011;27322;49.488;8.480;2022-09-30T06:22:10;10.02;;;4.95;;
41629;SDS011;27322;49.488;8.480;2022-09-30T06:24:36;8.63;;;5.30;;
41629;SDS011;27322;49.488;8.480;2022-09-30T06:27:01;8.60;;;6.18;;
41629;SDS011;27322;49.488;8.480;2022-09-30T06:29:27;14.30;;;7.53;;
41629;SDS011;27322;49.488;8.480;2022-09-30T06:31:53;14.05;;;8.98;;
41629;SDS011;27322;49.488;8.480;2022-09-30T06:34:19;17.55;;;9.93;;
41629;SDS011;27322;49.488;8.480;2022-09-30T06:36:44;14.57;;;10.57;;
41629;SDS011;27322;49.488;8.480;2022-09-30T06:39:10;15.63;;;9.88;;
41629;SDS011;27322;49.488;8.480;2022-09-30T06:41:35;16.30;;;9.75;;
41629;SDS011;27322;49.488;8.480;2022-09-30T06:44:07;16.15;;;9.85;;
41629;SDS011;27322;49.488;8.480;2022-09-30T06:46:33;16.58;;;10.65;;
41629;SDS011;27322;49.488;8.480;2022-09-30T06:49:00;20.00;;;11.55;;
41629;SDS011;27322;49.488;8.480;2022-09-30T06:51:26;17.23;;;11.27;;
41629;SDS011;27322;49.488;8.480;2022-09-30T06:53:53;21.45;;;12.82;;
41629;SDS011;27322;49.488;8.480;2022-09-30T06:56:20;21.05;;;12.38;;
41629;SDS011;27322;49.488;8.480;2022-09-30T06:58:46;20.13;;;12.77;;
41629;SDS011;27322;49.488;8.480;2022-09-30T07:01:12;18.65;;;12.18;;
41629;SDS011;27322;49.488;8.480;2022-09-30T07:03:39;20.13;;;12.57;;
41629;SDS011;27322;49.488;8.480;2022-09-30T07:06:09;20.92;;;11.68;;
41629;SDS011;27322;49.488;8.480;2022-09-30T07:08:37;15.70;;;10.10;;
41629;SDS011;27322;49.488;8.480;2022-09-30T07:11:10;14.07;;;9.25;;
41629;SDS011;27322;49.488;8.480;2022-09-30T07:13:39;13.02;;;8.82;;
41629;SDS011;27322;49.488;8.480;2022-09-30T07:16:07;15.63;;;9.05;;
41629;SDS011;27322;49.488;8.480;2022-09-30T07:18:33;15.85;;;9.07;;
41629;SDS011;27322;49.488;8.480;2022-09-30T07:20:58;13.30;;;8.68;;
41629;SDS011;27322;49.488;8.480;2022-09-30T07:23:24;16.52;;;8.95;;
41629;SDS011;27322;49.488;8.480;2022-09-30T07:25:54;15.02;;;9.25;;
41629;SDS011;27322;49.488;8.480;2022-09-30T07:28:25;13.68;;;9.52;;
41629;SDS011;27322;49.488;8.480;2022-09-30T07:30:54;14.30;;;9.30;;
41629;SDS011;27322;49.488;8.480;2022-09-30T07:33:23;14.73;;;9.88;;
41629;SDS011;27322;49.488;8.480;2022-09-30T07:35:54;14.93;;;9.27;;
41629;SDS011;27322;49.488;8.480;2022-09-30T07:38:22;16.67;;;9.85;;
41629;SDS011;27322;49.488;8.480;2022-09-30T07:40:57;18.77;;;10.52;;
41629;SDS011;27322;49.488;8.480;2022-09-30T07:43:29;15.90;;;10.68;;
41629;SDS011;27322;49.488;8.480;2022-09-30T07:46:09;19.17;;;11.25;;
41629;SDS011;27322;49.488;8.480;2022-09-30T07:48:37;19.30;;;11.88;;
41629;SDS011;27322;49.488;8.480;2022-09-30T07:51:11;19.42;;;12.27;;
41629;SDS011;27322;49.488;8.480;2022-09-30T07:53:44;24.13;;;14.43;;
41629;SDS011;27322;49.488;8.480;2022-09-30T07:56:12;22.02;;;14.43;;
41629;SDS011;27322;49.488;8.480;2022-09-30T07:58:38;27.52;;;15.93;;
41629;SDS011;27322;49.488;8.480;2022-09-30T08:01:04;24.67;;;16.85;;
41629;SDS011;27322;49.488;8.480;2022-09-30T08:03:31;27.48;;;17.65;;
41629;SDS011;27322;49.488;8.480;2022-09-30T08:06:02;32.35;;;19.45;;
41629;SDS011;27322;49.488;8.480;2022-09-30T08:08:36;33.75;;;20.00;;
41629;SDS011;27322;49.488;8.480;2022-09-30T08:11:02;35.75;;;20.42;;
41629;SDS011;27322;49.488;8.480;2022-09-30T08:13:29;36.70;;;22.45;;
41629;SDS011;27322;49.488;8.480;2022-09-30T08:15:55;36.58;;;23.23;;
41629;SDS011;27322;49.488;8.480;2022-09-30T08:18:21;36.72;;;22.17;;
41629;SDS011;27322;49.488;8.480;2022-09-30T08:20:47;35.45;;;21.13;;
41629;SDS011;27322;49.488;8.480;2022-09-30T08:23:13;32.72;;;21.27;;
41629;SDS011;27322;49.488;8.480;2022-09-30T08:25:38;31.73;;;20.27;;
41629;SDS011;27322;49.488;8.480;2022-09-30T08:28:04;34.35;;;20.45;;
41629;SDS011;27322;49.488;8.480;2022-09-30T08:30:29;32.53;;;21.33;;
41629;SDS011;27322;49.488;8.480;2022-09-30T08:32:56;33.20;;;20.27;;
41629;SDS011;27322;49.488;8.480;2022-09-30T08:35:22;32.90;;;20.13;;
41629;SDS011;27322;49.488;8.480;2022-09-30T08:37:47;29.80;;;20.00;;
41629;SDS011;27322;49.488;8.480;2022-09-30T08:40:19;30.42;;;19.75;;
41629;SDS011;27322;49.488;8.480;2022-09-30T08:53:26;27.52;;;18.10;;
41629;SDS011;27322;49.488;8.480;2022-09-30T08:55:55;28.42;;;19.00;;
41629;SDS011;27322;49.488;8.480;2022-09-30T08:58:30;33.00;;;18.70;;
41629;SDS011;27322;49.488;8.480;2022-09-30T09:03:49;29.95;;;18.58;;
41629;SDS011;27322;49.488;8.480;2022-09-30T09:11:27;31.42;;;18.75;;
41629;SDS011;27322;49.488;8.480;2022-09-30T09:14:22;28.13;;;18.17;;
41629;SDS011;27322;49.488;8.480;2022-09-30T09:17:52;29.98;;;19.55;;
41629;SDS011;27322;49.488;8.480;2022-09-30T09:22:34;29.38;;;18.85;;
41629;SDS011;27322;49.488;8.480;2022-09-30T09:25:01;33.55;;;19.05;;
41629;SDS011;27322;49.488;8.480;2022-09-30T09:27:43;35.35;;;21.30;;
41629;SDS011;27322;49.488;8.480;2022-09-30T09:30:19;29.58;;;19.75;;
41629;SDS011;27322;49.488;8.480;2022-09-30T09:32:53;30.83;;;19.80;;
41629;SDS011;27322;49.488;8.480;2022-09-30T09:41:03;29.70;;;20.25;;
41629;SDS011;27322;49.488;8.480;2022-09-30T09:46:32;29.80;;;19.48;;
41629;SDS011;27322;49.488;8.480;2022-09-30T09:54:41;26.52;;;17.92;;
41629;SDS011;27322;49.488;8.480;2022-09-30T09:57:10;28.00;;;17.73;;
41629;SDS011;27322;49.488;8.480;2022-09-30T09:59:38;26.42;;;18.75;;
41629;SDS011;27322;49.488;8.480;2022-09-30T10:02:29;29.27;;;19.25;;
41629;SDS011;27322;49.488;8.480;2022-09-30T10:04:56;27.70;;;17.58;;
41629;SDS011;27322;49.488;8.480;2022-09-30T10:07:28;26.52;;;17.52;;
41629;SDS011;27322;49.488;8.480;2022-09-30T10:10:28;26.55;;;16.85;;
41629;SDS011;27322;49.488;8.480;2022-09-30T10:12:47;24.17;;;16.75;;
41629;SDS011;27322;49.488;8.480;2022-09-30T10:15:23;24.20;;;15.93;;
41629;SDS011;27322;49.488;8.480;2022-09-30T10:17:56;25.08;;;15.60;;
41629;SDS011;27322;49.488;8.480;2022-09-30T10:20:32;21.20;;;13.40;;
41629;SDS011;27322;49.488;8.480;2022-09-30T10:22:59;20.20;;;13.50;;
41629;SDS011;27322;49.488;8.480;2022-09-30T10:25:59;18.80;;;13.23;;
41629;SDS011;27322;49.488;8.480;2022-09-30T10:28:28;17.77;;;12.75;;
41629;SDS011;27322;49.488;8.480;2022-09-30T10:33:40;18.17;;;11.98;;
41629;SDS011;27322;49.488;8.480;2022-09-30T10:38:43;13.80;;;8.52;;
41629;SDS011;27322;49.488;8.480;2022-09-30T10:41:36;14.02;;;8.65;;
41629;SDS011;27322;49.488;8.480;2022-09-30T10:44:03;14.45;;;8.60;;
41629;SDS011;27322;49.488;8.480;2022-09-30T10:46:35;16.95;;;9.48;;
41629;SDS011;27322;49.488;8.480;2022-09-30T10:49:10;14.23;;;8.40;;
41629;SDS011;27322;49.488;8.480;2022-09-30T10:51:55;12.98;;;8.70;;
41629;SDS011;27322;49.488;8.480;2022-09-30T10:54:34;14.77;;;8.60;;
41629;SDS011;27322;49.488;8.480;2022-09-30T10:57:13;14.93;;;9.27;;
41629;SDS011;27322;49.488;8.480;2022-09-30T11:00:06;16.08;;;10.98;;
41629;SDS011;27322;49.488;8.480;2022-09-30T11:05:37;15.38;;;10.32;;
41629;SDS011;27322;49.488;8.480;2022-09-30T11:13:26;13.55;;;8.77;;
41629;SDS011;27322;49.488;8.480;2022-09-30T11:32:54;9.60;;;6.43;;
41629;SDS011;27322;49.488;8.480;2022-09-30T11:56:37;8.82;;;5.05;;
41629;SDS011;27322;49.488;8.480;2022-09-30T11:59:32;8.02;;;4.82;;
41629;SDS011;27322;49.488;8.480;2022-09-30T12:02:08;6.25;;;4.28;;
41629;SDS011;27322;49.488;8.480;2022-09-30T12:04:42;8.60;;;4.47;;
41629;SDS011;27322;49.488;8.480;2022-09-30T12:09:41;10.27;;;3.90;;
41629;SDS011;27322;49.488;8.480;2022-09-30T12:12:12;6.88;;;3.70;;
41629;SDS011;27322;49.488;8.480;2022-09-30T12:17:19;6.97;;;3.90;;
41629;SDS011;27322;49.488;8.480;2022-09-30T12:19:47;6.55;;;3.78;;
41629;SDS011;27322;49.488;8.480;2022-09-30T12:22:17;5.38;;;3.15;;
41629;SDS011;27322;49.488;8.480;2022-09-30T12:24:48;7.18;;;3.50;;
41629;SDS011;27322;49.488;8.480;2022-09-30T12:27:24;6.18;;;3.33;;
41629;SDS011;27322;49.488;8.480;2022-09-30T12:30:15;5.90;;;4.00;;
41629;SDS011;27322;49.488;8.480;2022-09-30T12:46:22;8.85;;;2.67;;
41629;SDS011;27322;49.488;8.480;2022-09-30T12:49:00;4.82;;;2.65;;
41629;SDS011;27322;49.488;8.480;2022-09-30T12:51:33;4.78;;;2.60;;
41629;SDS011;27322;49.488;8.480;2022-09-30T12:54:24;4.15;;;2.20;;
41629;SDS011;27322;49.488;8.480;2022-09-30T12:57:03;5.25;;;2.28;;
41629;SDS011;27322;49.488;8.480;2022-09-30T12:59:33;5.78;;;2.40;;
41629;SDS011;27322;49.488;8.480;2022-09-30T13:02:02;4.70;;;1.92;;
41629;SDS011;27322;49.488;8.480;2022-09-30T13:09:36;4.47;;;2.10;;
41629;SDS011;27322;49.488;8.480;2022-09-30T13:15:26;6.23;;;2.40;;
41629;SDS011;27322;49.488;8.480;2022-09-30T13:23:37;4.53;;;1.77;;
41629;SDS011;27322;49.488;8.480;2022-09-30T13:28:51;5.63;;;2.83;;
41629;SDS011;27322;49.488;8.480;2022-09-30T13:34:10;4.68;;;2.38;;
41629;SDS011;27322;49.488;8.480;2022-09-30T13:36:39;5.95;;;1.70;;
41629;SDS011;27322;49.488;8.480;2022-09-30T13:50:36;5.10;;;2.80;;
41629;SDS011;27322;49.488;8.480;2022-09-30T13:53:26;7.00;;;2.70;;
41629;SDS011;27322;49.488;8.480;2022-09-30T13:56:07;5.82;;;2.70;;
41629;SDS011;27322;49.488;8.480;2022-09-30T13:58:50;4.57;;;2.00;;
41629;SDS011;27322;49.488;8.480;2022-09-30T14:04:13;6.28;;;3.00;;
41629;SDS011;27322;49.488;8.480;2022-09-30T14:12:16;4.88;;;2.45;;
41629;SDS011;27322;49.488;8.480;2022-09-30T14:22:52;4.95;;;2.70;;
41629;SDS011;27322;49.488;8.480;2022-09-30T14:25:18;5.25;;;2.20;;
41629;SDS011;27322;49.488;8.480;2022-09-30T14:30:24;3.33;;;1.55;;
41629;SDS011;27322;49.488;8.480;2022-09-30T14:35:21;5.95;;;2.60;;
41629;SDS011;27322;49.488;8.480;2022-09-30T14:40:34;4.40;;;2.22;;
41629;SDS011;27322;49.488;8.480;2022-09-30T14:43:07;5.93;;;2.55;;
41629;SDS011;27322;49.488;8.480;2022-09-30T14:45:40;4.55;;;2.20;;
41629;SDS011;27322;49.488;8.480;2022-09-30T14:48:12;4.22;;;2.25;;
41629;SDS011;27322;49.488;8.480;2022-09-30T14:50:46;5.60;;;2.53;;
41629;SDS011;27322;49.488;8.480;2022-09-30T14:55:49;5.70;;;2.15;;
41629;SDS011;27322;49.488;8.480;2022-09-30T15:01:05;5.28;;;2.00;;
41629;SDS011;27322;49.488;8.480;2022-09-30T15:03:40;4.00;;;1.80;;
41629;SDS011;27322;49.488;8.480;2022-09-30T15:06:19;5.20;;;2.30;;
41629;SDS011;27322;49.488;8.480;2022-09-30T15:08:50;4.20;;;2.10;;
41629;SDS011;27322;49.488;8.480;2022-09-30T15:11:24;4.32;;;2.15;;
41629;SDS011;27322;49.488;8.480;2022-09-30T15:13:56;4.05;;;2.05;;
41629;SDS011;27322;49.488;8.480;2022-09-30T15:16:24;5.50;;;2.17;;
41629;SDS011;27322;49.488;8.480;2022-09-30T15:18:51;5.97;;;2.78;;
41629;SDS011;27322;49.488;8.480;2022-09-30T15:21:18;4.22;;;2.45;;
41629;SDS011;27322;49.488;8.480;2022-09-30T15:23:47;4.82;;;2.20;;
41629;SDS011;27322;49.488;8.480;2022-09-30T15:26:21;3.88;;;1.70;;
41629;SDS011;27322;49.488;8.480;2022-09-30T15:28:49;3.90;;;2.30;;
41629;SDS011;27322;49.488;8.480;2022-09-30T15:33:48;4.28;;;2.08;;
41629;SDS011;27322;49.488;8.480;2022-09-30T15:36:24;4.13;;;1.80;;
41629;SDS011;27322;49.488;8.480;2022-09-30T15:38:50;3.83;;;1.77;;
41629;SDS011;27322;49.488;8.480;2022-09-30T15:41:16;4.45;;;2.20;;
41629;SDS011;27322;49.488;8.480;2022-09-30T15:43:43;6.10;;;2.08;;
41629;SDS011;27322;49.488;8.480;2022-09-30T15:48:42;3.55;;;1.88;;
41629;SDS011;27322;49.488;8.480;2022-09-30T15:53:54;4.18;;;1.60;;
41629;SDS011;27322;49.488;8.480;2022-09-30T15:59:02;2.80;;;1.52;;
41629;SDS011;27322;49.488;8.480;2022-09-30T16:06:49;3.67;;;1.77;;
41629;SDS011;27322;49.488;8.480;2022-09-30T16:11:55;4.65;;;1.63;;
41629;SDS011;27322;49.488;8.480;2022-09-30T16:14:25;5.45;;;1.80;;
41629;SDS011;27322;49.488;8.480;2022-09-30T16:16:54;4.93;;;1.80;;
41629;SDS011;27322;49.488;8.480;2022-09-30T16:19:22;4.38;;;1.75;;
41629;SDS011;27322;49.488;8.480;2022-09-30T16:21:49;4.45;;;1.60;;
41629;SDS011;27322;49.488;8.480;2022-09-30T16:27:41;2.58;;;1.50;;
41629;SDS011;27322;49.488;8.480;2022-09-30T16:29:46;2.45;;;1.30;;
41629;SDS011;27322;49.488;8.480;2022-09-30T16:32:11;3.58;;;1.60;;
41629;SDS011;27322;49.488;8.480;2022-09-30T16:34:40;3.13;;;1.35;;
41629;SDS011;27322;49.488;8.480;2022-09-30T16:37:10;3.40;;;1.40;;
41629;SDS011;27322;49.488;8.480;2022-09-30T16:39:37;5.10;;;2.15;;
41629;SDS011;27322;49.488;8.480;2022-09-30T16:42:04;3.92;;;1.60;;
41629;SDS011;27322;49.488;8.480;2022-09-30T16:44:29;3.63;;;1.58;;
41629;SDS011;27322;49.488;8.480;2022-09-30T16:46:59;3.42;;;1.65;;
41629;SDS011;27322;49.488;8.480;2022-09-30T16:49:26;4.18;;;2.00;;
41629;SDS011;27322;49.488;8.480;2022-09-30T16:51:52;4.38;;;2.00;;
41629;SDS011;27322;49.488;8.480;2022-09-30T16:54:18;4.55;;;1.80;;
41629;SDS011;27322;49.488;8.480;2022-09-30T16:56:44;4.28;;;2.05;;
41629;SDS011;27322;49.488;8.480;2022-09-30T16:59:13;5.30;;;1.88;;
41629;SDS011;27322;49.488;8.480;2022-09-30T17:01:40;4.47;;;1.70;;
41629;SDS011;27322;49.488;8.480;2022-09-30T17:04:06;4.53;;;1.80;;
41629;SDS011;27322;49.488;8.480;2022-09-30T17:06:32;4.80;;;2.00;;
41629;SDS011;27322;49.488;8.480;2022-09-30T17:08:58;4.00;;;2.00;;
41629;SDS011;27322;49.488;8.480;2022-09-30T17:11:27;3.58;;;1.73;;
41629;SDS011;27322;49.488;8.480;2022-09-30T17:14:04;5.50;;;2.00;;
41629;SDS011;27322;49.488;8.480;2022-09-30T17:16:30;3.92;;;2.08;;
41629;SDS011;27322;49.488;8.480;2022-09-30T17:18:56;4.82;;;1.92;;
41629;SDS011;27322;49.488;8.480;2022-09-30T17:21:24;4.15;;;1.98;;
41629;SDS011;27322;49.488;8.480;2022-09-30T17:23:51;3.67;;;1.90;;
41629;SDS011;27322;49.488;8.480;2022-09-30T17:26:17;4.43;;;2.20;;
41629;SDS011;27322;49.488;8.480;2022-09-30T17:28:43;5.10;;;2.35;;
41629;SDS011;27322;49.488;8.480;2022-09-30T17:31:09;5.07;;;1.90;;
41629;SDS011;27322;49.488;8.480;2022-09-30T17:33:38;6.07;;;2.17;;
41629;SDS011;27322;49.488;8.480;2022-09-30T17:36:05;5.85;;;2.60;;
41629;SDS011;27322;49.488;8.480;2022-09-30T17:38:35;4.82;;;2.38;;
41629;SDS011;27322;49.488;8.480;2022-09-30T17:41:02;5.32;;;2.50;;
41629;SDS011;27322;49.488;8.480;2022-09-30T17:43:46;5.28;;;2.40;;
41629;SDS011;27322;49.488;8.480;2022-09-30T17:46:13;4.07;;;2.30;;
41629;SDS011;27322;49.488;8.480;2022-09-30T17:48:42;5.97;;;2.42;;
41629;SDS011;27322;49.488;8.480;2022-09-30T17:51:09;4.85;;;2.70;;
41629;SDS011;27322;49.488;8.480;2022-09-30T17:53:35;6.90;;;2.20;;
41629;SDS011;27322;49.488;8.480;2022-09-30T17:58:36;4.78;;;2.47;;
41629;SDS011;27322;49.488;8.480;2022-09-30T18:01:06;5.78;;;2.53;;
41629;SDS011;27322;49.488;8.480;2022-09-30T18:03:33;6.00;;;3.15;;
41629;SDS011;27322;49.488;8.480;2022-09-30T18:05:59;8.50;;;3.00;;
41629;SDS011;27322;49.488;8.480;2022-09-30T18:08:25;6.20;;;3.17;;
41629;SDS011;27322;49.488;8.480;2022-09-30T18:10:52;6.45;;;3.13;;
41629;SDS011;27322;49.488;8.480;2022-09-30T18:13:18;6.95;;;2.58;;
41629;SDS011;27322;49.488;8.480;2022-09-30T18:15:47;6.90;;;3.28;;
41629;SDS011;27322;49.488;8.480;2022-09-30T18:18:13;5.25;;;2.80;;
41629;SDS011;27322;49.488;8.480;2022-09-30T18:20:43;6.15;;;3.00;;
41629;SDS011;27322;49.488;8.480;2022-09-30T18:23:10;5.28;;;2.78;;
41629;SDS011;27322;49.488;8.480;2022-09-30T18:25:36;6.35;;;2.83;;
41629;SDS011;27322;49.488;8.480;2022-09-30T18:28:02;4.85;;;2.70;;
41629;SDS011;27322;49.488;8.480;2022-09-30T18:30:28;6.20;;;2.97;;
41629;SDS011;27322;49.488;8.480;2022-09-30T18:32:54;4.90;;;2.70;;
41629;SDS011;27322;49.488;8.480;2022-09-30T18:35:22;6.35;;;2.63;;
41629;SDS011;27322;49.488;8.480;2022-09-30T18:37:48;6.70;;;2.90;;
41629;SDS011;27322;49.488;8.480;2022-09-30T18:40:18;5.60;;;3.10;;
41629;SDS011;27322;49.488;8.480;2022-09-30T18:42:45;7.50;;;3.08;;
41629;SDS011;27322;49.488;8.480;2022-09-30T18:45:13;5.93;;;2.95;;
41629;SDS011;27322;49.488;8.480;2022-09-30T18:47:39;5.55;;;2.83;;
41629;SDS011;27322;49.488;8.480;2022-09-30T18:50:09;7.22;;;3.05;;
41629;SDS011;27322;49.488;8.480;2022-09-30T18:52:36;6.47;;;2.92;;
41629;SDS011;27322;49.488;8.480;2022-09-30T18:55:03;5.65;;;2.92;;
41629;SDS011;27322;49.488;8.480;2022-09-30T18:57:29;6.03;;;2.78;;
41629;SDS011;27322;49.488;8.480;2022-09-30T18:59:56;5.03;;;3.13;;
41629;SDS011;27322;49.488;8.480;2022-09-30T19:02:22;6.55;;;3.13;;
41629;SDS011;27322;49.488;8.480;2022-09-30T19:04:48;6.47;;;2.80;;
41629;SDS011;27322;49.488;8.480;2022-09-30T19:07:17;4.90;;;2.80;;
41629;SDS011;27322;49.488;8.480;2022-09-30T19:09:43;6.53;;;3.15;;